Date,TemperatureHighF,TemperatureAvgF,TemperatureLowF,DewpointHighF,DewpointAvgF,DewpointLowF,HumidityHigh,HumidityAvg,HumidityLow,PressureMaxIn,PressureMinIn,WindSpeedMaxMPH,WindSpeedAvgMPH,GustSpeedMaxMPH,PrecipitationSumIn
2013-1-1,39,34,26,32,26,16,81,71,60,30.05,29.87,3,1,5,0.00
2013-1-2,33,26,19,21,17,14,85,67,51,30.21,30.03,3,1,7,0.00
2013-1-3,32,27,18,22,18,15,92,71,55,30.23,30.09,4,1,6,0.00
2013-1-4,37,33,27,26,24,21,82,69,58,30.11,29.98,4,1,8,0.00
2013-1-5,42,34,28,27,24,20,89,66,48,30.33,30.06,4,1,6,0.00
2013-1-6,44,37,30,32,30,26,90,75,58,30.23,29.99,3,1,5,0.00
2013-1-7,43,35,24,32,28,22,92,77,50,30.41,30.09,3,0,5,0.00
2013-1-8,45,31,21,33,26,19,95,83,60,30.44,30.36,3,0,6,0.00
2013-1-9,40,29,22,38,27,21,95,92,84,30.42,30.16,2,0,3,0.01
2013-1-10,48,38,30,33,29,27,93,70,46,30.56,30.28,4,1,7,0.00
2013-1-11,44,36,29,40,34,27,97,90,76,30.55,30.11,2,0,3,0.29
2013-1-12,44,41,38,43,40,38,98,97,94,30.19,30.11,2,0,4,0.00
2013-1-13,48,45,42,47,44,41,99,99,98,30.16,30.00,2,0,3,0.00
2013-1-14,55,48,38,52,42,31,99,84,51,30.32,29.89,4,1,8,0.01
2013-1-15,38,36,32,34,30,26,95,79,65,30.38,30.22,3,1,4,0.00
2013-1-16,34,32,31,34,31,29,97,95,92,30.23,29.85,3,1,4,0.00
2013-1-17,42,37,34,34,31,27,97,80,62,30.11,29.95,3,0,4,0.00
2013-1-18,34,28,25,27,15,8,79,59,40,30.47,30.02,4,1,7,0.00
2013-1-19,47,37,26,32,25,14,77,62,49,30.39,29.90,6,2,9,0.02
2013-1-20,52,38,28,34,24,13,88,60,28,30.07,29.72,5,2,8,0.00
2013-1-21,29,26,23,22,15,11,90,63,49,30.11,29.88,3,1,5,0.00
2013-1-22,24,18,12,13,2,-4,63,51,38,30.27,29.88,5,2,11,0.00
2013-1-23,20,13,8,6,1,-4,85,59,40,30.30,30.21,4,1,7,0.00
2013-1-24,23,15,7,9,4,-1,90,65,36,30.49,30.17,6,1,11,0.00
2013-1-25,23,16,11,18,8,0,95,71,51,30.48,30.09,2,0,5,0.00
2013-1-26,27,17,7,15,9,4,93,72,47,30.42,30.09,5,1,8,0.00
2013-1-27,34,21,9,19,13,6,92,72,41,30.57,30.42,3,0,6,0.00
2013-1-28,34,29,19,33,26,15,97,90,78,30.52,30.02,2,0,4,0.00
2013-1-29,50,41,34,44,39,33,97,92,80,30.15,30.02,3,0,4,0.00
2013-1-30,64,50,40,60,49,39,99,96,85,30.05,29.30,5,1,7,0.00
2013-1-31,56,41,27,56,30,13,99,67,42,29.81,29.05,6,3,9,0.00
2013-2-1,30,26,21,21,15,6,88,65,36,30.26,29.80,5,2,7,0.00
2013-2-2,24,21,16,21,13,8,93,73,55,30.33,30.06,4,1,7,0.00
2013-2-3,28,22,15,23,19,12,94,87,73,30.06,29.81,2,0,5,0.00
2013-2-4,29,25,20,21,15,11,82,66,49,30.03,29.87,4,1,5,0.00
2013-2-5,32,28,25,28,24,19,95,86,77,29.99,29.90,3,0,3,0.00
2013-2-6,38,31,26,29,23,13,96,73,47,30.37,29.94,3,1,5,0.00
2013-2-7,33,27,18,21,16,13,89,65,49,30.53,30.32,3,1,6,0.00
2013-2-8,35,32,29,32,29,19,96,87,64,30.33,29.72,6,3,9,0.00
2013-2-9,32,27,20,30,18,10,97,71,48,30.40,29.79,7,2,15,0.00
2013-2-10,36,24,8,25,15,5,92,71,44,30.52,30.31,3,0,4,0.00
2013-2-11,40,35,29,40,33,22,98,92,70,30.32,29.68,2,0,2,0.00
2013-2-12,43,38,31,35,28,25,98,68,56,29.99,29.76,4,1,6,0.00
2013-2-13,43,34,22,34,27,21,96,79,55,29.98,29.69,2,0,4,0.00
2013-2-14,44,35,28,34,30,25,98,82,56,30.01,29.73,3,0,5,0.00
2013-2-15,53,39,26,36,30,25,95,74,44,30.03,29.93,5,1,7,0.00
2013-2-16,36,32,28,32,25,13,97,76,51,30.00,29.81,5,1,9,0.00
2013-2-17,31,25,18,13,7,1,56,45,35,30.09,29.77,6,3,10,0.00
2013-2-18,35,25,16,20,9,2,73,52,37,30.32,30.09,4,1,9,0.00
2013-2-19,42,32,21,36,28,17,97,85,58,30.19,29.72,4,0,6,0.00
2013-2-20,35,29,24,27,16,11,73,59,47,30.05,29.78,5,3,10,0.00
2013-2-21,34,27,22,17,15,12,73,60,49,30.34,30.03,6,2,14,0.00
2013-2-22,38,29,19,30,21,14,87,74,57,30.44,30.25,3,1,5,0.00
2013-2-23,41,37,34,40,36,30,97,95,85,30.27,29.83,3,1,4,0.00
2013-2-24,45,37,32,40,31,23,98,80,61,30.02,29.80,3,1,7,0.00
2013-2-25,44,35,27,30,27,23,92,75,56,30.26,30.03,4,1,9,0.00
2013-2-26,44,34,24,34,29,23,95,82,60,30.29,29.86,7,2,12,0.00
2013-2-27,47,42,36,45,39,34,96,89,75,29.88,29.53,7,3,11,0.00
2013-2-28,48,40,33,37,33,29,97,80,56,29.67,29.58,3,0,5,0.00
2013-3-1,43,37,30,32,29,25,96,75,58,29.85,29.65,4,1,7,0.00
2013-3-2,38,33,30,26,24,20,76,67,58,29.84,29.75,4,1,7,0.00
2013-3-3,37,31,28,21,20,18,73,63,51,29.84,29.74,5,2,8,0.00
2013-3-4,41,34,28,23,20,18,70,59,44,29.98,29.83,5,2,11,0.00
2013-3-5,47,37,31,29,25,22,79,62,46,30.05,29.96,5,2,10,0.00
2013-3-6,40,38,34,37,31,27,93,76,65,30.00,29.86,10,5,22,0.00
2013-3-7,46,38,32,33,29,26,91,68,48,30.14,29.99,7,4,13,0.00
2013-3-8,45,36,30,33,29,25,93,78,60,30.27,30.07,5,2,13,0.00
2013-3-9,60,42,26,28,24,18,85,55,20,30.33,30.23,4,1,9,0.00
2013-3-10,58,42,26,36,29,24,92,66,30,30.38,30.26,4,1,5,0.00
2013-3-11,57,46,36,48,40,33,96,81,53,30.31,30.04,3,1,7,0.00
2013-3-12,57,52,43,56,49,37,98,88,77,30.03,29.68,5,2,8,0.97
2013-3-13,51,42,33,37,30,22,90,65,38,29.93,29.83,4,1,10,0.00
2013-3-14,42,34,29,21,14,8,64,45,27,30.01,29.89,5,2,9,0.00
2013-3-15,46,37,27,32,22,13,65,56,45,30.03,29.73,5,2,10,0.00
2013-3-16,42,34,29,32,28,22,94,81,60,29.94,29.78,3,0,4,0.05
2013-3-17,38,32,27,32,23,18,95,69,46,30.32,29.93,4,1,6,0.02
2013-3-18,36,29,22,30,22,14,96,75,50,30.42,29.98,6,2,10,0.00
2013-3-19,47,37,32,39,32,19,97,83,46,29.98,29.70,5,1,7,0.48
2013-3-20,45,36,30,27,22,18,74,56,34,29.92,29.79,5,2,8,0.00
2013-3-21,40,33,28,26,18,12,74,55,34,29.85,29.67,4,2,7,0.00
2013-3-22,42,34,26,24,20,14,76,59,41,29.92,29.77,3,1,7,0.00
2013-3-23,45,38,31,24,22,19,68,53,37,29.97,29.87,5,2,10,0.00
2013-3-24,47,38,26,28,23,20,81,54,36,29.99,29.70,5,1,7,0.00
2013-3-25,40,37,33,36,31,25,95,80,56,29.70,29.50,5,2,7,0.09
2013-3-26,53,41,33,35,31,25,96,72,35,29.91,29.63,5,1,7,0.00
2013-3-27,52,40,27,35,29,23,91,68,33,30.03,29.90,6,1,12,0.00
2013-3-28,49,41,29,33,30,27,93,67,47,30.16,30.00,5,1,9,0.00
2013-3-29,53,44,29,33,30,26,90,59,38,30.19,30.10,5,1,8,0.00
2013-3-30,60,43,27,35,26,19,94,59,21,30.21,30.08,2,0,4,0.00
2013-3-31,58,42,28,44,34,25,96,76,40,30.14,29.71,4,1,8,0.11
2013-4-1,59,47,35,48,35,13,97,68,31,29.95,29.65,5,2,13,0.00
2013-4-2,43,35,26,22,16,11,78,47,27,30.12,29.95,4,1,8,0.00
2013-4-3,46,36,28,19,14,10,68,42,25,30.35,30.12,4,2,7,0.00
2013-4-4,54,41,25,25,21,14,77,46,30,30.41,30.07,4,1,7,0.00
2013-4-5,63,48,35,31,25,17,76,44,17,30.07,29.76,6,2,10,0.00
2013-4-6,55,43,33,25,17,11,58,37,18,30.32,30.04,5,2,9,0.00
2013-4-7,63,56,40,42,36,28,66,47,35,30.27,29.98,14,3,14,0.00
2013-4-8,77,69,52,51,46,39,74,45,26,30.09,29.94,3,1,7,0.00
2013-4-9,84,69,54,54,47,36,85,51,19,29.98,29.87,4,1,6,0.00
2013-4-10,86,67,56,60,54,48,97,67,39,29.94,29.76,9,1,15,0.39
2013-4-11,61,56,46,60,51,41,98,85,62,30.01,29.76,5,2,9,0.00
2013-4-12,47,44,41,43,41,40,95,90,76,29.98,29.72,6,3,9,0.04
2013-4-13,58,48,38,44,38,34,98,70,44,29.98,29.77,4,0,6,0.00
2013-4-14,60,51,40,42,34,27,92,57,31,30.21,29.96,3,1,7,0.00
2013-4-15,63,52,42,41,36,30,78,55,39,30.36,30.21,4,1,7,0.00
2013-4-16,69,59,48,57,50,38,83,72,64,30.35,30.09,5,2,8,0.00
2013-4-17,71,61,50,58,42,32,94,56,24,30.28,30.12,5,1,8,0.00
2013-4-18,58,52,44,54,46,40,94,81,61,30.32,30.06,4,1,9,0.00
2013-4-19,77,66,51,65,60,47,96,83,66,30.06,29.56,6,2,12,0.02
2013-4-20,58,51,42,49,35,23,95,58,34,30.34,29.71,5,2,8,0.00
2013-4-21,55,44,34,34,25,20,75,48,29,30.62,30.35,6,1,8,0.00
2013-4-22,56,45,32,37,33,29,91,65,44,30.65,30.48,6,2,9,0.00
2013-4-23,50,45,40,42,37,33,93,75,65,30.48,30.15,5,2,8,0.00
2013-4-24,73,56,36,57,47,35,96,75,50,30.14,29.78,4,1,7,0.01
2013-4-25,65,54,43,56,33,25,82,47,23,30.27,29.89,4,1,9,0.00
2013-4-26,66,51,35,39,32,23,94,54,21,30.43,30.27,3,1,7,0.00
2013-4-27,70,54,34,42,36,32,93,56,26,30.45,30.26,2,0,3,0.00
2013-4-28,73,58,38,45,40,33,94,56,31,30.31,30.16,4,1,5,0.00
2013-4-29,56,53,52,52,49,42,94,86,62,30.23,30.15,4,1,8,0.00
2013-4-30,69,57,45,52,43,24,95,64,23,30.34,30.19,4,1,9,0.00
2013-5-1,74,54,36,44,36,26,89,57,19,30.48,30.34,4,1,8,0.00
2013-5-2,76,56,37,48,42,36,97,67,32,30.48,30.34,2,0,4,0.00
2013-5-7,77,70,63,59,56,51,87,62,47,30.14,30.06,4,1,7,0.00
2013-5-8,69,62,58,63,59,56,98,91,70,30.08,29.92,2,0,7,0.02
2013-5-9,69,60,55,60,57,54,98,89,66,29.99,29.89,1,0,3,0.03
2013-5-10,80,66,51,64,58,51,99,79,44,30.02,29.87,2,0,3,0.16
2013-5-11,70,64,59,66,62,58,98,93,80,29.91,29.69,1,0,4,0.40
2013-5-12,66,58,47,58,42,27,97,60,29,29.96,29.69,5,2,11,0.00
2013-5-13,54,47,38,36,32,27,89,59,37,30.14,29.96,3,1,7,0.00
2013-5-14,61,47,32,39,31,20,97,61,24,30.18,30.02,2,0,5,0.00
2013-5-15,74,58,41,60,48,36,86,72,54,30.07,29.67,3,0,6,0.00
2013-5-16,82,67,51,61,54,45,98,68,30,29.86,29.71,2,0,6,0.00
2013-5-17,73,62,50,48,44,40,84,54,33,30.21,29.86,3,0,11,0.00
2013-5-18,66,56,48,57,52,45,94,84,54,30.30,30.21,1,0,2,0.04
2013-5-19,62,58,56,59,56,54,97,93,86,30.29,30.16,2,0,4,0.05
2013-5-20,80,67,58,68,62,56,98,85,64,30.18,29.95,1,0,4,0.00
2013-5-21,89,73,59,73,67,58,99,82,56,29.97,29.81,2,0,4,0.00
2013-5-22,86,75,64,74,69,63,98,81,59,29.89,29.77,2,0,4,0.00
2013-5-23,78,68,63,72,66,62,99,93,75,29.87,29.73,2,0,7,0.93
2013-5-24,63,56,44,62,55,41,99,95,84,30.01,29.69,2,0,7,0.26
2013-5-25,59,51,44,43,40,35,94,68,43,30.06,29.96,5,2,10,0.06
2013-5-26,68,61,46,41,37,33,82,43,30,30.23,30.06,4,2,6,0.00
2013-5-27,76,58,37,48,41,36,97,62,26,30.27,30.13,2,0,3,0.00
2013-5-28,58,54,47,57,52,46,98,95,85,30.22,30.12,1,0,1,0.32
2013-5-29,84,68,57,71,63,57,99,86,58,30.13,29.99,1,0,4,0.00
2013-5-30,93,77,62,70,65,61,99,71,39,30.14,30.04,1,0,3,0.00
2013-5-31,93,78,63,73,65,56,98,69,35,30.12,29.96,1,0,2,0.00
2013-6-1,92,78,61,72,67,60,98,72,49,30.02,29.85,2,0,4,0.00
2013-6-2,88,77,71,74,70,67,97,79,53,29.87,29.74,2,0,4,0.22
2013-6-3,82,72,64,70,65,52,98,80,56,29.91,29.78,1,0,3,0.00
2013-6-4,76,65,52,52,47,41,84,55,31,30.14,29.91,3,1,5,0.07
2013-6-5,78,63,45,52,49,44,94,64,37,30.23,30.08,3,1,5,0.00
2013-6-6,70,61,52,61,55,50,96,82,56,30.14,29.97,3,1,5,0.35
2013-6-7,63,61,59,63,60,58,98,97,95,29.98,29.66,3,1,8,2.25
2013-6-8,76,66,58,66,62,57,99,86,66,30.07,29.65,2,0,4,0.18
2013-6-9,82,69,54,65,60,54,99,77,47,30.18,30.07,2,0,4,0.00
2013-6-10,67,65,63,66,64,61,99,96,92,30.14,29.77,2,0,6,1.47
2013-6-11,79,71,65,69,66,62,99,85,66,29.77,29.64,3,1,5,0.02
2013-6-12,82,70,62,62,58,54,89,66,40,29.84,29.73,3,1,4,0.00
2013-6-13,66,61,56,62,59,55,98,94,88,29.84,29.44,4,1,7,1.06
2013-6-14,77,62,54,60,56,51,97,81,52,29.93,29.57,3,1,5,0.10
2013-6-15,81,66,52,62,57,51,99,75,40,30.04,29.93,2,0,3,0.00
2013-6-16,80,68,55,67,60,54,98,79,52,30.00,29.78,3,0,4,0.00
2013-6-17,86,74,61,71,64,56,99,74,37,29.92,29.81,2,0,5,0.00
2013-6-18,84,69,60,72,64,59,97,85,54,29.91,29.78,3,0,6,1.13
2013-6-19,78,66,55,60,55,49,98,71,37,30.16,29.90,3,1,5,0.00
2013-6-20,84,68,51,62,57,50,98,72,37,30.27,30.17,1,0,3,0.00
2013-6-21,85,70,56,64,59,54,95,70,45,30.30,30.20,2,0,3,0.00
2013-6-22,85,71,55,68,63,54,97,77,53,30.25,30.09,2,0,4,0.00
2013-6-23,91,77,63,72,69,62,98,77,52,30.18,30.02,2,0,3,0.00
2013-6-24,95,78,68,75,70,67,97,81,43,30.06,29.93,2,0,3,0.12
2013-6-25,91,76,65,78,70,64,99,84,55,30.00,29.80,2,0,4,0.11
2013-6-26,84,75,66,72,69,66,97,82,62,29.87,29.78,1,0,3,0.01
2013-6-27,90,76,65,74,69,64,98,83,52,29.82,29.51,3,0,6,0.57
2013-6-28,87,76,69,72,69,65,98,81,57,29.54,29.45,2,0,5,0.00
2013-6-29,86,74,64,69,66,63,97,78,54,29.68,29.47,1,0,3,0.00
2013-6-30,88,75,65,75,69,64,97,83,65,29.88,29.68,2,0,3,0.00
2013-7-1,77,73,70,75,72,69,99,94,88,30.00,29.85,1,0,4,1.25
2013-7-2,84,78,74,76,73,71,95,86,72,30.15,30.00,2,0,3,0.00
2013-7-3,83,77,72,78,73,70,97,88,75,30.22,30.14,1,0,4,0.14
2013-7-4,88,79,72,76,74,71,99,85,66,30.24,30.12,2,0,4,0.01
2013-7-5,93,80,70,76,73,69,98,80,55,30.19,30.06,1,0,3,0.00
2013-7-6,94,81,71,77,74,70,98,79,54,30.14,30.00,2,0,3,0.00
2013-7-7,95,81,71,78,74,68,98,80,54,30.05,29.91,3,0,8,0.03
2013-7-8,89,77,69,73,70,67,95,79,55,30.04,29.94,1,0,3,0.00
2013-7-9,86,76,66,76,70,65,97,84,65,30.06,29.97,2,0,3,0.02
2013-7-10,85,78,70,76,73,69,98,85,66,30.00,29.80,2,0,4,0.00
2013-7-11,87,78,68,74,70,64,94,78,55,29.91,29.79,2,0,5,0.00
2013-7-12,80,72,67,72,66,62,96,85,72,30.06,29.92,3,1,4,0.11
2013-7-13,81,72,67,75,70,66,98,93,82,30.27,30.06,2,1,5,0.10
2013-7-14,92,81,74,77,74,72,99,82,56,30.33,30.22,2,0,5,0.00
2013-7-15,98,82,70,78,74,69,98,78,49,30.24,30.12,2,0,3,0.00
2013-7-16,95,81,68,76,71,67,98,75,46,30.21,30.11,2,0,6,0.00
2013-7-17,97,82,68,76,71,67,98,74,41,30.19,30.03,2,0,7,0.00
2013-7-18,100,85,73,77,74,70,95,72,41,30.06,29.93,2,0,3,0.00
2013-7-19,98,85,72,79,75,71,97,75,50,29.95,29.76,2,0,3,0.00
2013-7-20,92,82,75,77,72,67,88,74,49,29.82,29.71,2,0,5,0.00
2013-7-21,89,80,71,73,70,65,97,74,47,29.93,29.81,2,0,4,0.00
2013-7-22,90,76,70,75,71,67,98,86,59,29.93,29.77,2,0,5,0.75
2013-7-23,88,76,71,77,72,70,99,90,64,29.76,29.55,2,0,3,0.67
2013-7-24,80,72,62,70,64,53,98,76,54,29.95,29.62,3,1,7,0.00
2013-7-25,72,64,57,62,56,51,88,76,66,30.05,29.94,3,1,6,0.00
2013-7-26,85,71,58,64,60,57,97,73,44,30.05,29.98,1,0,4,0.00
2013-7-27,87,72,58,69,63,56,98,76,53,30.04,29.91,2,0,3,0.00
2013-7-28,79,70,66,73,68,63,98,92,78,29.97,29.88,3,0,6,1.23
2013-7-29,84,70,60,68,62,56,99,79,39,30.11,29.94,2,0,4,0.02
2013-7-30,82,68,55,64,59,54,98,77,47,30.19,30.10,2,0,3,0.00
2013-7-31,85,70,56,65,61,55,98,77,47,30.18,30.01,1,0,3,0.00
2013-8-1,69,67,63,68,66,62,97,96,92,30.02,29.82,2,0,6,0.37
2013-8-2,85,72,63,70,65,61,99,79,49,29.91,29.81,2,0,3,0.02
2013-8-3,77,68,63,69,65,60,98,90,75,29.92,29.84,2,0,3,0.14
2013-8-4,79,68,57,64,59,53,99,74,46,30.00,29.88,2,0,4,0.01
2013-8-5,78,65,52,63,54,49,98,73,36,30.09,29.99,3,0,5,0.00
2013-8-6,83,68,53,64,59,52,98,76,42,30.11,30.04,2,0,4,0.00
2013-8-7,76,70,65,69,66,62,95,87,75,30.11,30.02,2,0,5,0.06
2013-8-8,84,74,69,77,72,68,98,94,74,30.04,29.96,1,0,2,0.48
2013-8-9,87,76,71,78,74,70,99,94,70,29.98,29.78,2,0,3,0.80
2013-8-10,84,73,65,70,67,64,99,82,54,30.05,29.88,2,0,3,0.00
2013-8-11,80,67,57,63,59,55,98,80,50,30.14,30.04,1,0,2,0.00
2013-8-12,84,76,66,68,65,62,95,70,48,30.02,29.91,2,0,4,0.14
2013-8-13,81,70,65,72,67,64,99,90,73,29.91,29.67,2,0,2,1.33
2013-8-14,74,64,53,65,55,51,96,75,49,30.07,29.78,3,1,5,0.00
2013-8-15,78,62,49,61,54,48,99,78,38,30.16,30.07,2,0,3,0.00
2013-8-16,80,61,51,61,55,50,99,84,42,30.18,30.14,0,0,0,0.00
2013-8-21,85,76,68,70,68,66,95,76,54,30.09,30.05,0,0,1,0.00
2013-8-22,81,72,67,75,69,66,98,92,78,30.06,29.87,1,0,4,0.05
2013-8-23,81,69,60,67,63,57,99,83,46,30.12,29.90,1,0,3,0.00
2013-8-24,80,66,54,59,56,52,99,75,43,30.35,30.12,2,0,5,0.00
2013-8-25,83,65,51,65,56,50,99,78,41,30.42,30.23,1,0,4,0.00
2013-8-26,81,70,60,71,64,58,97,84,69,30.24,29.92,1,0,3,0.05
2013-8-27,88,76,69,73,69,67,98,81,54,29.91,29.84,2,0,5,0.01
2013-8-28,74,70,66,73,69,65,99,97,90,29.89,29.83,1,0,2,0.67
2013-8-29,81,73,68,72,70,67,99,89,70,30.01,29.88,2,0,4,0.01
2013-8-30,83,74,68,74,70,66,94,86,69,30.01,29.83,1,0,3,0.00
2013-8-31,88,77,70,76,73,68,98,86,67,29.85,29.76,1,0,3,0.00
2013-9-1,85,77,72,77,73,70,98,88,69,29.82,29.76,2,0,3,0.37
2013-9-2,81,73,69,75,71,68,99,95,79,29.79,29.69,1,0,2,0.76
2013-9-3,81,70,61,69,63,57,99,82,49,29.91,29.72,2,0,2,0.01
2013-9-4,82,68,58,63,60,56,98,78,46,30.02,29.90,2,0,4,0.00
2013-9-5,77,65,53,64,55,45,99,76,38,30.17,29.94,3,0,6,0.00
2013-9-6,71,57,45,52,46,39,98,72,34,30.29,30.15,2,0,5,0.00
2013-9-7,79,61,45,61,52,44,99,77,37,30.16,29.91,1,0,2,0.00
2013-9-8,80,67,55,67,58,47,97,74,39,30.10,29.83,3,1,11,0.00
2013-9-9,75,62,45,62,54,44,97,77,50,30.25,30.10,2,0,3,0.00
2013-9-10,86,75,67,76,70,62,95,85,70,30.15,30.02,2,0,4,0.00
2013-9-11,94,80,68,80,74,68,99,83,61,30.12,29.96,2,0,3,0.00
2013-9-12,83,73,68,77,71,66,99,94,76,29.98,29.68,1,0,3,0.88
2013-9-13,75,66,56,67,60,49,99,82,58,29.89,29.65,3,0,7,0.10
2013-9-14,62,56,44,50,48,43,95,76,59,30.16,29.89,4,1,5,0.00
2013-9-15,71,56,43,56,49,42,99,82,47,30.24,30.08,1,0,2,0.00
2013-9-16,72,60,53,60,54,47,98,83,54,30.27,30.05,2,0,5,0.06
2013-9-17,64,53,42,47,43,40,96,73,41,30.45,30.28,3,1,4,0.00
2013-9-18,72,54,41,53,46,40,99,79,39,30.37,30.19,1,0,3,0.00
2013-9-19,76,57,43,58,50,42,99,80,44,30.22,30.08,1,0,3,0.00
2013-9-20,80,62,47,63,55,46,99,82,47,30.10,29.97,2,0,3,0.00
2013-9-21,78,64,51,64,58,50,99,82,52,30.00,29.66,2,0,5,0.61
2013-9-22,67,60,54,60,52,43,98,75,47,29.95,29.67,3,1,5,0.12
2013-9-23,65,55,45,47,44,42,92,68,48,30.08,29.95,4,1,8,0.00
2013-9-24,73,54,38,52,45,38,98,75,38,30.09,29.91,2,0,4,0.00
2013-9-25,72,55,40,54,48,39,98,79,42,30.00,29.88,2,0,5,0.00
2013-9-26,73,57,44,60,52,44,99,86,56,30.12,29.96,2,0,5,0.00
2013-9-27,71,58,46,56,52,45,99,82,51,30.27,30.12,1,0,1,0.00
2013-9-28,74,61,51,56,53,50,97,78,46,30.34,30.24,2,0,4,0.00
2013-9-29,71,57,47,58,52,46,99,85,58,30.25,30.07,2,0,3,0.00
2013-9-30,74,58,47,58,51,46,99,83,46,30.10,29.97,2,0,4,0.00
2013-10-1,80,61,48,64,55,47,99,82,48,30.05,29.91,2,0,3,0.00
2013-10-2,84,65,49,65,58,48,99,81,50,30.03,29.93,2,0,4,0.01
2013-10-3,79,64,52,65,58,51,99,83,43,30.14,30.03,1,0,2,0.00
2013-10-4,86,69,56,70,63,55,98,82,54,30.08,29.97,1,0,3,0.00
2013-10-5,83,70,62,69,65,61,98,85,60,30.09,29.98,2,0,4,0.05
2013-10-6,70,68,65,67,65,63,97,93,88,30.07,29.97,2,0,5,0.02
2013-10-7,76,65,52,71,63,50,98,94,83,30.00,29.70,4,1,10,0.46
2013-10-8,67,54,44,52,47,43,99,80,46,30.34,30.00,3,0,6,0.01
2013-10-9,61,51,42,50,46,42,98,84,54,30.42,30.31,3,1,7,0.00
2013-10-10,58,54,49,53,48,45,91,83,74,30.31,30.08,3,2,8,0.05
2013-10-11,65,60,56,60,54,48,92,80,72,30.10,30.02,3,2,7,0.02
2013-10-12,74,63,55,57,50,34,87,64,26,30.26,30.08,5,2,7,0.00
2013-10-13,66,59,48,54,51,47,95,77,61,30.38,30.26,3,1,5,0.00
2013-10-14,68,54,44,52,48,43,99,82,45,30.38,30.24,2,0,4,0.00
2013-10-15,73,56,44,57,48,42,98,78,48,30.27,30.11,2,0,8,0.00
2013-10-16,65,56,47,58,52,44,94,87,76,30.13,29.92,1,0,2,0.00
2013-10-17,76,66,58,63,60,57,96,84,57,29.92,29.66,2,0,4,0.01
2013-10-18,66,57,43,63,47,41,92,70,48,30.00,29.68,3,1,7,0.00
2013-10-19,64,50,37,53,44,36,98,82,48,30.01,29.77,2,0,4,0.08
2013-10-20,62,50,39,51,41,35,97,76,37,30.09,29.79,3,1,6,0.00
2013-10-21,67,49,34,45,39,33,98,74,38,30.18,29.98,2,0,5,0.01
2013-10-22,61,49,38,51,42,35,97,79,47,29.98,29.77,2,0,4,0.00
2013-10-23,55,42,32,42,36,31,97,81,44,29.85,29.66,2,0,4,0.00
2013-10-24,52,41,32,38,32,28,98,75,42,30.04,29.81,3,1,5,0.01
2013-10-25,53,42,32,37,33,30,93,73,45,30.25,30.04,3,1,6,0.00
2013-10-26,54,42,30,36,32,28,96,71,41,30.26,29.91,4,1,6,0.00
2013-10-27,57,46,34,37,34,30,88,64,43,30.17,29.89,3,1,6,0.00
2013-10-28,61,42,28,40,33,26,96,74,39,30.33,30.16,2,0,4,0.00
2013-10-29,56,44,34,37,34,31,91,72,43,30.44,30.33,3,0,5,0.00
2013-10-30,56,45,33,50,40,31,94,83,72,30.37,30.18,1,0,1,0.00
2013-10-31,63,55,46,60,53,44,98,93,87,30.23,29.77,3,0,5,0.07
2013-11-1,69,62,46,64,56,44,97,85,58,29.77,29.51,5,1,7,0.36
2013-11-2,65,51,41,50,45,39,98,81,53,29.81,29.65,2,0,4,0.00
2013-11-3,49,42,30,43,32,21,95,67,45,30.49,29.81,7,2,8,0.00
2013-11-4,44,33,24,28,20,-100,91,65,35,30.67,30.49,5,-15,7,0.00
2013-11-5,55,42,29,44,32,-100,87,72,57,30.68,30.48,3,-20,4,0.00
2013-11-6,62,53,46,50,46,42,89,78,63,30.49,30.06,2,0,4,0.00
2013-11-7,58,50,38,56,43,-100,96,84,67,30.06,29.78,3,-30,5,0.11
2013-11-8,48,40,31,37,31,28,91,71,46,30.25,29.97,3,1,5,0.00
2013-11-9,50,39,28,35,30,25,94,70,45,30.32,29.99,2,0,4,0.00
2013-11-10,56,44,31,38,33,29,94,67,47,30.10,29.86,5,2,7,0.00
2013-11-11,52,45,33,38,32,26,80,58,49,30.25,29.97,4,1,7,0.00
2013-11-12,48,35,26,37,24,18,89,65,48,30.34,29.95,6,2,8,0.01
2013-11-13,38,30,24,27,18,14,89,63,39,30.43,30.30,4,1,7,0.00
2013-11-14,51,36,25,25,22,19,87,60,29,30.30,30.19,4,1,7,0.00
2013-11-15,56,38,25,32,25,20,90,65,27,30.28,30.16,2,0,4,0.00
2013-11-16,60,46,34,45,40,29,96,80,54,30.35,30.26,1,0,3,0.04
2013-11-17,64,56,47,58,53,44,97,90,74,30.26,29.74,3,1,5,0.00
2013-11-18,63,56,48,60,42,28,97,62,35,29.84,29.60,6,2,9,0.29
2013-11-19,48,41,33,30,26,22,66,53,47,30.39,29.83,5,2,11,0.00
2013-11-20,43,34,24,23,19,11,79,56,27,30.65,30.39,6,2,10,0.00
2013-11-21,50,36,20,40,28,17,89,72,56,30.65,30.40,2,0,5,0.00
2013-11-22,54,48,43,49,44,35,96,86,72,30.40,29.95,3,1,5,0.02
2013-11-23,51,39,27,47,26,10,88,60,40,30.13,29.94,6,2,10,0.00
2013-11-24,27,24,21,10,5,3,58,44,36,30.43,30.09,6,3,11,0.00
2013-11-25,34,27,19,17,14,9,76,57,47,30.52,30.33,4,2,6,0.00
2013-11-26,38,33,31,38,25,16,97,74,51,30.34,29.73,3,1,4,0.77
2013-11-27,43,39,32,43,35,20,98,88,58,29.82,29.42,5,2,11,1.19
2013-11-28,34,30,26,25,17,12,82,58,41,30.48,29.82,6,2,10,0.00
2013-11-29,36,30,21,26,22,16,91,72,52,30.76,30.48,3,0,5,0.00
2013-11-30,35,27,16,29,20,13,93,77,53,30.79,30.40,3,0,6,0.00
2013-12-1,45,34,24,36,28,22,95,81,56,30.40,30.03,2,0,4,0.00
2013-12-2,46,36,28,39,31,26,93,81,59,30.04,29.90,1,0,2,0.00
2013-12-3,52,37,28,39,32,26,95,83,54,30.03,29.89,2,0,4,0.00
2013-12-4,51,41,28,44,36,27,96,84,68,30.15,30.03,2,0,5,0.00
2013-12-5,51,48,44,51,47,42,98,96,83,30.12,29.93,2,0,3,0.02
2013-12-6,53,44,36,52,42,35,99,93,84,30.19,29.88,4,1,9,0.90
2013-12-7,37,33,27,35,28,20,96,82,65,30.56,30.11,4,1,7,0.01
2013-12-8,30,27,22,27,22,18,95,81,66,30.62,30.38,2,1,4,0.00
2013-12-9,35,33,28,34,32,27,98,97,95,30.38,30.01,2,1,5,0.28
2013-12-10,32,30,22,32,28,19,98,95,83,30.16,29.93,2,0,4,0.05
2013-12-11,32,26,21,25,19,16,92,76,57,30.37,30.16,4,1,6,0.00
2013-12-12,28,23,18,21,12,7,82,63,45,30.42,30.19,3,1,5,0.00
2013-12-13,35,25,12,24,16,7,90,69,51,30.34,30.16,4,1,7,0.00
2013-12-14,28,23,18,24,20,16,93,87,76,30.49,29.84,6,3,9,0.00
2013-12-15,38,30,18,32,25,16,96,83,66,29.86,29.61,6,2,10,0.12
2013-12-16,31,24,12,24,12,8,88,63,45,30.24,29.85,4,2,6,0.00
2013-12-17,22,17,10,19,14,7,93,88,79,30.24,29.98,2,0,3,0.00
2013-12-18,35,22,7,25,17,5,96,82,61,30.21,29.98,4,1,5,0.08
2013-12-19,38,25,13,29,20,10,93,83,64,30.20,30.06,3,0,5,0.06
2013-12-20,46,35,27,34,30,25,94,83,60,30.13,29.99,2,0,3,0.21
2013-12-21,51,39,32,43,35,30,95,86,72,30.03,29.91,2,0,3,0.01
2013-12-22,63,52,37,58,51,34,99,94,82,29.96,29.78,4,1,6,0.05
2013-12-23,55,48,38,55,46,30,99,94,71,30.19,29.92,5,1,10,0.63
2013-12-24,38,32,23,30,23,13,90,68,55,30.40,30.13,4,1,8,0.00
2013-12-25,26,22,16,20,13,8,82,65,54,30.57,30.40,3,1,5,0.00
2013-12-26,32,26,20,28,22,17,95,86,69,30.43,30.20,3,0,4,0.01
2013-12-27,38,27,18,32,22,16,96,82,58,30.40,30.29,3,0,6,0.00
2013-12-28,50,33,20,33,26,18,96,79,47,30.30,30.09,4,1,7,0.00
2013-12-29,40,35,29,39,33,26,97,93,88,30.09,29.51,4,1,5,0.86
2013-12-30,43,33,22,37,27,13,97,78,59,30.20,29.74,4,1,8,0.00
2013-12-31,31,24,17,26,15,11,91,70,54,30.31,30.07,6,2,7,0.00
2014-1-1,34,27,20,25,19,12,84,73,62,30.43,30.24,3,1,5,0.00
2014-1-2,28,21,14,22,17,12,91,84,78,30.24,29.74,6,4,10,0.00